Time;durP1;ratioP1;P1;durP2;ratioP2;P2;SDS_P1;SDS_P2;PMS_P1;PMS_P2;Temp;Humidity;BMP_temperature;BMP_pressure;BME280_temperature;BME280_humidity;BME280_pressure;Samples;Min_cycle;Max_cycle;Signal;HPM_P1;HPM_P2
2022/03/29 00:02:11;;;;;;;138.23;47.92;;;;;;;8.97;64.50;95208.91;5114014;27;20098;-47
2022/03/29 00:04:38;;;;;;;202.63;72.88;;;;;;;8.92;64.31;95190.56;5110814;27;20047;-47
2022/03/29 00:07:04;;;;;;;55.85;22.88;;;;;;;8.94;64.36;95198.94;5107272;27;20408;-46
2022/03/29 00:09:31;;;;;;;38.25;15.00;;;;;;;8.89;64.75;95201.38;5112338;27;20115;-44
2022/03/29 00:15:39;;;;;;;21.38;10.35;;;;;;;8.74;65.00;95188.69;5110915;28;20054;-47
2022/03/29 00:18:24;;;;;;;26.88;9.32;;;;;;;8.52;65.27;95164.88;5109867;28;20519;-44
2022/03/29 00:20:50;;;;;;;19.77;9.65;;;;;;;8.49;66.06;95175.66;5112377;28;20043;-49
2022/03/29 00:23:18;;;;;;;14.70;8.02;;;;;;;8.43;66.13;95176.50;5116934;28;20043;-44
2022/03/29 00:25:45;;;;;;;19.55;8.98;;;;;;;8.32;66.40;95174.53;5111792;28;20036;-46
2022/03/29 00:28:11;;;;;;;17.38;9.05;;;;;;;8.19;66.67;95176.22;5114422;28;20113;-44
2022/03/29 00:30:38;;;;;;;25.20;9.93;;;;;;;8.11;67.10;95173.84;5110563;28;20039;-43
2022/03/29 00:33:05;;;;;;;18.45;7.72;;;;;;;8.02;67.50;95169.91;5111347;28;20043;-45
2022/03/29 00:35:32;;;;;;;15.90;8.57;;;;;;;8.01;67.83;95163.09;5113386;28;20489;-43
2022/03/29 00:38:00;;;;;;;19.80;9.85;;;;;;;8.03;67.62;95166.28;5113152;28;20058;-45
2022/03/29 00:40:27;;;;;;;16.85;8.48;;;;;;;8.00;67.60;95157.13;5116018;28;20566;-45
2022/03/29 00:42:54;;;;;;;21.35;8.63;;;;;;;7.92;68.13;95149.56;5112971;28;20100;-43
2022/03/29 00:45:21;;;;;;;13.55;7.00;;;;;;;7.91;67.98;95153.19;5112722;28;20046;-45
2022/03/29 00:47:48;;;;;;;17.50;9.02;;;;;;;7.92;68.09;95153.97;5120316;27;20050;-48
2022/03/29 00:50:15;;;;;;;20.63;9.02;;;;;;;7.88;68.40;95152.78;5118313;27;20039;-42
2022/03/29 00:52:42;;;;;;;30.65;8.27;;;;;;;7.77;68.67;95147.25;5117087;27;20096;-44
2022/03/29 00:55:13;;;;;;;18.95;8.95;;;;;;;7.72;68.67;95164.41;5116348;27;20035;-47
2022/03/29 00:57:41;;;;;;;14.02;8.25;;;;;;;7.57;68.98;95152.50;5115424;27;20078;-46
2022/03/29 01:00:08;;;;;;;18.45;8.23;;;;;;;7.51;69.22;95149.91;5115705;27;20398;-50
2022/03/29 01:02:36;;;;;;;19.45;8.63;;;;;;;7.44;69.36;95142.97;5117529;27;20088;-45
2022/03/29 01:05:03;;;;;;;16.63;8.98;;;;;;;7.37;70.00;95142.19;5114133;27;20431;-45
2022/03/29 01:07:30;;;;;;;17.02;8.95;;;;;;;7.25;71.39;95134.22;5121045;27;20039;-46
2022/03/29 01:09:58;;;;;;;18.15;8.10;;;;;;;7.19;71.38;95129.06;5115029;27;20050;-45
2022/03/29 01:12:24;;;;;;;26.73;10.20;;;;;;;7.04;71.47;95132.66;5114139;27;20499;-44
2022/03/29 01:14:52;;;;;;;18.63;9.02;;;;;;;6.95;72.32;95125.28;5112192;27;20039;-45
2022/03/29 01:17:39;;;;;;;14.55;8.95;;;;;;;6.91;72.59;95124.91;5115592;27;20067;-45
2022/03/29 01:20:09;;;;;;;16.05;8.63;;;;;;;6.91;72.88;95111.94;5112865;27;20450;-43
2022/03/29 01:22:40;;;;;;;21.08;8.93;;;;;;;6.86;73.51;95103.97;5113440;27;20044;-45
2022/03/29 01:25:08;;;;;;;15.07;8.20;;;;;;;6.90;73.66;95115.56;5110526;27;20043;-45
2022/03/29 01:27:36;;;;;;;23.20;10.57;;;;;;;6.84;73.68;95105.97;5115829;27;20104;-44
2022/03/29 01:30:03;;;;;;;16.80;8.98;;;;;;;6.81;73.87;95096.84;5117604;27;20039;-44
2022/03/29 01:32:31;;;;;;;17.25;9.02;;;;;;;6.75;73.94;95094.25;5112711;27;20043;-48
2022/03/29 01:34:59;;;;;;;18.48;9.52;;;;;;;6.76;73.66;95088.06;5112292;27;20095;-44
2022/03/29 01:37:26;;;;;;;21.17;9.07;;;;;;;6.70;73.94;95090.47;5116718;27;20042;-44
2022/03/29 01:39:53;;;;;;;15.43;8.68;;;;;;;6.62;73.95;95088.06;5118271;27;20689;-45
2022/03/29 01:42:19;;;;;;;18.30;9.90;;;;;;;6.46;73.92;95072.94;5114529;27;20446;-45
2022/03/29 01:44:46;;;;;;;19.70;10.27;;;;;;;6.52;73.95;95087.69;5115734;27;20050;-46
2022/03/29 01:47:18;;;;;;;24.55;10.38;;;;;;;6.38;74.62;95073.16;5120263;27;20043;-45
2022/03/29 01:49:45;;;;;;;17.83;10.30;;;;;;;6.37;74.53;95079.31;5112694;27;20488;-45
2022/03/29 01:52:12;;;;;;;16.88;10.15;;;;;;;6.37;74.54;95084.47;5116010;27;20036;-46
2022/03/29 01:54:39;;;;;;;17.30;10.23;;;;;;;6.32;74.27;95083.28;5118270;27;20103;-44
2022/03/29 01:57:06;;;;;;;17.08;9.65;;;;;;;6.27;75.18;95074.53;5116527;27;20096;-44
2022/03/29 02:00:30;;;;;;;34.25;9.82;;;;;;;6.15;75.38;95071.72;5114237;27;20054;-46
2022/03/29 02:02:25;;;;;;;18.73;9.45;;;;;;;5.97;75.71;95058.56;5115303;27;20092;-44
2022/03/29 02:04:52;;;;;;;17.75;9.98;;;;;;;5.90;76.14;95063.69;5121167;27;20043;-47
2022/03/29 02:07:19;;;;;;;19.27;10.63;;;;;;;5.82;76.42;95062.09;5117206;27;20039;-45
2022/03/29 02:09:46;;;;;;;22.23;10.85;;;;;;;5.79;76.69;95061.69;5115550;27;20046;-44
2022/03/29 02:12:13;;;;;;;22.23;10.38;;;;;;;5.70;76.50;95053.31;5115291;27;20043;-46
2022/03/29 02:14:39;;;;;;;20.15;9.88;;;;;;;5.60;76.60;95047.69;5117781;27;20465;-47
2022/03/29 02:17:06;;;;;;;31.13;11.15;;;;;;;5.45;76.48;95048.66;5119774;27;20096;-43
2022/03/29 02:19:33;;;;;;;24.98;12.18;;;;;;;5.37;77.44;95038.50;5116781;27;20061;-45
2022/03/29 02:22:00;;;;;;;18.30;10.65;;;;;;;5.35;77.47;95045.66;5112598;27;20047;-48
2022/03/29 02:24:27;;;;;;;19.75;9.65;;;;;;;5.30;77.56;95037.66;5112709;27;20078;-47
2022/03/29 02:26:53;;;;;;;17.15;9.93;;;;;;;5.26;77.52;95034.69;5120090;27;20112;-46
2022/03/29 02:29:20;;;;;;;27.08;10.20;;;;;;;5.17;77.79;95036.63;5112905;27;20054;-46
2022/03/29 02:31:47;;;;;;;26.42;11.88;;;;;;;5.05;78.23;95035.56;5113693;27;20039;-43
2022/03/29 02:34:14;;;;;;;23.90;11.70;;;;;;;5.02;78.40;95030.78;5119260;27;20031;-44
2022/03/29 02:36:40;;;;;;;19.40;8.95;;;;;;;4.94;77.96;95033.53;5110230;27;20046;-44
2022/03/29 02:39:07;;;;;;;19.67;9.32;;;;;;;4.89;78.38;95035.88;5111917;27;20143;-44
2022/03/29 02:41:34;;;;;;;19.08;8.82;;;;;;;4.77;78.12;95033.00;5114058;27;20051;-44
2022/03/29 02:44:02;;;;;;;19.77;9.98;;;;;;;4.66;77.56;95031.75;5109723;27;20571;-44
2022/03/29 02:46:30;;;;;;;21.73;10.38;;;;;;;4.50;78.18;95024.31;5115564;27;20389;-43
2022/03/29 02:48:56;;;;;;;18.52;9.60;;;;;;;4.48;78.50;95034.03;5114280;27;20051;-44
2022/03/29 02:51:23;;;;;;;17.95;7.95;;;;;;;4.40;79.17;95033.19;5116066;27;20051;-46
2022/03/29 02:53:50;;;;;;;12.70;7.65;;;;;;;4.43;79.19;95026.03;5117890;27;20043;-48
2022/03/29 02:56:16;;;;;;;17.25;9.50;;;;;;;4.46;79.32;95025.69;5113673;27;20043;-48
2022/03/29 02:58:43;;;;;;;17.17;8.30;;;;;;;4.42;79.08;95024.47;5115447;27;20039;-50
2022/03/29 03:01:10;;;;;;;14.52;7.55;;;;;;;4.42;79.02;95024.47;5116776;27;20066;-46
2022/03/29 03:03:37;;;;;;;19.38;8.25;;;;;;;4.44;79.08;95027.66;5113143;27;20556;-48
2022/03/29 03:06:04;;;;;;;15.50;9.32;;;;;;;4.46;78.83;95023.09;5107448;27;20486;-45
2022/03/29 03:08:30;;;;;;;20.60;9.32;;;;;;;4.48;77.92;95019.34;5113365;27;20039;-46
2022/03/29 03:10:57;;;;;;;18.73;9.23;;;;;;;4.35;78.25;95007.16;5112000;27;20093;-48
2022/03/29 03:13:24;;;;;;;24.55;10.15;;;;;;;4.36;77.97;95021.66;5112786;27;20099;-45
2022/03/29 03:15:50;;;;;;;26.70;11.77;;;;;;;4.16;78.82;95016.34;5113494;27;20465;-48
2022/03/29 03:18:17;;;;;;;22.60;9.98;;;;;;;4.15;79.12;95024.25;5111102;27;20050;-47
2022/03/29 03:20:44;;;;;;;22.33;10.15;;;;;;;4.12;79.91;95030.56;5110127;27;20076;-48
2022/03/29 03:23:11;;;;;;;22.52;10.18;;;;;;;4.07;81.03;95026.94;5106863;27;20055;-47
2022/03/29 03:25:39;;;;;;;27.67;11.05;;;;;;;4.11;80.96;95015.31;5106845;27;20445;-47
2022/03/29 03:28:06;;;;;;;24.35;9.55;;;;;;;4.13;81.00;95026.22;5107042;27;20062;-47
2022/03/29 03:30:33;;;;;;;17.75;10.82;;;;;;;4.07;81.14;95017.47;5108137;27;20519;-51
2022/03/29 03:33:00;;;;;;;17.13;8.70;;;;;;;4.09;81.17;95022.41;5111840;27;20047;-45
2022/03/29 03:35:27;;;;;;;21.25;10.13;;;;;;;4.05;81.09;95021.19;5114355;27;20055;-46
2022/03/29 03:37:53;;;;;;;15.55;8.70;;;;;;;3.99;81.41;95026.09;5106131;27;20039;-47
2022/03/29 03:40:20;;;;;;;26.35;10.73;;;;;;;3.97;81.85;95017.75;5089244;27;20055;-46
2022/03/29 03:42:47;;;;;;;27.02;12.15;;;;;;;3.94;82.16;95018.16;5088587;27;20135;-45
2022/03/29 03:45:14;;;;;;;23.63;9.85;;;;;;;3.80;81.72;95001.75;5107393;27;20083;-45
2022/03/29 03:47:41;;;;;;;17.55;8.85;;;;;;;3.80;82.29;95016.44;5087659;28;20044;-46
2022/03/29 03:50:09;;;;;;;20.63;9.15;;;;;;;3.75;82.68;95009.25;5087327;27;20051;-45
2022/03/29 03:52:35;;;;;;;22.25;9.70;;;;;;;3.75;83.33;95018.75;5107328;27;20112;-46
2022/03/29 03:55:04;;;;;;;25.48;9.73;;;;;;;3.76;83.10;95017.75;5104442;27;20059;-43
2022/03/29 03:57:31;;;;;;;20.85;9.68;;;;;;;3.76;82.46;95017.75;5089147;28;20036;-44
2022/03/29 03:59:58;;;;;;;19.58;8.52;;;;;;;3.53;83.85;95021.31;5104170;27;20618;-44
2022/03/29 04:02:25;;;;;;;21.42;10.60;;;;;;;3.57;85.60;95027.69;5109015;27;20055;-46
2022/03/29 04:04:52;;;;;;;24.52;10.85;;;;;;;3.43;86.51;95020.78;5111846;27;20056;-46
2022/03/29 04:07:19;;;;;;;26.38;13.00;;;;;;;3.48;87.41;95033.94;5113512;27;20039;-48
2022/03/29 04:09:46;;;;;;;22.33;11.13;;;;;;;3.60;86.51;95027.31;5110136;27;20104;-43
2022/03/29 04:12:13;;;;;;;32.05;14.18;;;;;;;3.59;85.60;95018.00;5109135;27;20433;-44
2022/03/29 04:14:40;;;;;;;26.85;12.90;;;;;;;3.62;85.45;95022.78;5111459;27;20516;-44
2022/03/29 04:17:09;;;;;;;32.92;15.05;;;;;;;3.61;86.27;95028.91;5112878;28;20032;-44
2022/03/29 04:19:36;;;;;;;38.28;16.75;;;;;;;3.56;86.13;95015.78;5112433;27;20146;-44
2022/03/29 04:22:03;;;;;;;32.40;16.15;;;;;;;3.66;85.68;95009.56;5117360;27;20043;-43
2022/03/29 04:24:30;;;;;;;29.83;12.98;;;;;;;3.75;84.73;95018.75;5119694;27;20066;-46
2022/03/29 04:26:58;;;;;;;28.52;13.25;;;;;;;3.68;84.09;95018.69;5117333;27;20082;-47
2022/03/29 04:29:27;;;;;;;31.55;12.40;;;;;;;3.59;83.92;95005.13;5115540;27;20432;-46
2022/03/29 04:31:54;;;;;;;28.80;12.15;;;;;;;3.58;83.73;95013.84;5108405;27;20390;-49
2022/03/29 04:34:20;;;;;;;22.73;11.07;;;;;;;3.51;83.14;95023.28;5107220;27;20045;-47
2022/03/29 04:36:47;;;;;;;16.98;9.48;;;;;;;3.42;83.99;95012.28;5107139;27;20047;-44
2022/03/29 04:39:14;;;;;;;33.58;12.88;;;;;;;3.45;84.42;95018.81;5090776;27;20555;-46
2022/03/29 04:41:41;;;;;;;26.00;12.48;;;;;;;3.50;84.27;95020.88;5108371;27;20130;-42
2022/03/29 04:44:27;;;;;;;31.15;11.63;;;;;;;3.53;84.63;95026.47;5105806;27;20077;-44
2022/03/29 04:46:54;;;;;;;23.90;11.65;;;;;;;3.56;84.91;95020.91;5111239;27;20071;-44
2022/03/29 04:49:21;;;;;;;27.65;12.35;;;;;;;3.66;84.95;95030.16;5110583;27;20474;-45
2022/03/29 04:51:48;;;;;;;23.75;11.20;;;;;;;3.71;85.08;95022.66;5111351;27;20056;-44
2022/03/29 04:54:14;;;;;;;24.85;10.93;;;;;;;3.76;84.75;95025.47;5112347;27;20043;-48
2022/03/29 04:56:42;;;;;;;18.70;11.90;;;;;;;3.84;84.82;95027.94;5117339;27;20052;-43
2022/03/29 04:59:09;;;;;;;30.75;12.35;;;;;;;3.91;84.45;95025.44;5113111;27;20040;-45
2022/03/29 05:01:36;;;;;;;29.25;13.38;;;;;;;3.97;84.59;95028.06;5111915;27;20052;-44
2022/03/29 05:04:04;;;;;;;25.40;12.10;;;;;;;4.10;84.39;95031.75;5090596;27;20043;-47
2022/03/29 05:06:31;;;;;;;22.48;12.48;;;;;;;3.91;83.99;94982.44;5114351;27;20059;-44
2022/03/29 05:08:58;;;;;;;28.25;11.38;;;;;;;4.20;84.04;95016.78;5111230;27;20044;-44
2022/03/29 05:11:25;;;;;;;25.30;11.65;;;;;;;4.32;83.75;95019.63;5111766;27;20051;-44
2022/03/29 05:13:51;;;;;;;37.38;12.07;;;;;;;4.45;83.45;95024.06;5112570;27;20036;-45
2022/03/29 05:16:18;;;;;;;32.40;13.93;;;;;;;4.58;83.27;95024.19;5112652;27;20047;-45
2022/03/29 05:18:46;;;;;;;39.88;16.10;;;;;;;4.70;82.62;95027.84;5113790;27;20154;-45
2022/03/29 05:21:13;;;;;;;45.53;15.65;;;;;;;4.85;82.19;95024.34;5111516;27;20051;-43
2022/03/29 05:23:40;;;;;;;37.65;15.80;;;;;;;4.96;81.05;95021.22;5111021;27;20112;-48
2022/03/29 05:26:07;;;;;;;35.05;14.40;;;;;;;5.03;81.20;95016.91;5113747;27;20063;-47
2022/03/29 05:28:34;;;;;;;34.88;14.65;;;;;;;5.15;81.09;95015.38;5113622;27;20044;-46
2022/03/29 05:31:01;;;;;;;27.45;14.07;;;;;;;5.26;81.17;95013.22;5111154;27;20433;-46
2022/03/29 05:33:28;;;;;;;32.88;12.32;;;;;;;5.42;81.17;95014.66;5113078;27;20051;-47
2022/03/29 05:35:55;;;;;;;24.75;13.25;;;;;;;5.59;80.91;95013.31;5113906;27;20074;-45
2022/03/29 05:38:21;;;;;;;23.23;12.95;;;;;;;5.78;80.69;95014.38;5111938;27;20093;-45
2022/03/29 05:40:48;;;;;;;26.05;13.23;;;;;;;5.96;80.17;95010.44;5111349;27;20048;-45
2022/03/29 05:43:15;;;;;;;32.45;12.77;;;;;;;6.18;79.84;95005.91;5111115;27;22332;-48
2022/03/29 05:45:42;;;;;;;32.22;12.50;;;;;;;6.36;79.45;95007.88;5114002;27;20043;-49
2022/03/29 05:50:55;;;;;;;35.75;13.13;;;;;;;6.76;76.97;95010.41;5113323;27;20569;-44
2022/03/29 05:53:23;;;;;;;24.17;11.23;;;;;;;7.00;76.42;95012.31;5112269;27;20047;-47
2022/03/29 05:55:50;;;;;;;23.30;12.35;;;;;;;7.21;75.59;95013.88;5113795;27;20100;-44
2022/03/29 05:58:17;;;;;;;31.10;14.23;;;;;;;7.42;74.75;95006.81;5113067;27;20043;-46
2022/03/29 06:00:44;;;;;;;23.60;12.23;;;;;;;7.61;74.28;95008.50;5113020;27;20044;-42
2022/03/29 06:03:11;;;;;;;32.70;12.40;;;;;;;7.85;73.59;95009.56;5112517;27;20109;-45
2022/03/29 06:05:42;;;;;;;24.70;11.65;;;;;;;8.06;73.05;95002.44;5110971;27;20048;-45
2022/03/29 06:08:09;;;;;;;21.83;11.75;;;;;;;8.33;71.67;95010.03;5111497;27;20048;-47
2022/03/29 06:10:37;;;;;;;20.45;10.48;;;;;;;8.59;69.38;95009.06;5113141;27;20043;-44
2022/03/29 06:13:04;;;;;;;27.83;9.93;;;;;;;8.77;68.60;95010.91;5112839;27;20088;-45
2022/03/29 06:15:31;;;;;;;19.30;10.25;;;;;;;8.94;67.75;95016.31;5112184;27;20039;-48
2022/03/29 06:17:58;;;;;;;19.90;10.98;;;;;;;9.12;67.37;95002.53;5092211;27;20111;-43
2022/03/29 06:20:25;;;;;;;20.20;10.52;;;;;;;9.28;66.99;95014.94;5111455;27;20043;-44
2022/03/29 06:22:52;;;;;;;17.30;9.50;;;;;;;9.43;66.88;95008.56;5112921;27;20419;-44
2022/03/29 06:25:19;;;;;;;23.70;10.60;;;;;;;9.59;66.98;95007.97;5113014;27;20527;-44
2022/03/29 06:27:45;;;;;;;17.88;11.32;;;;;;;9.67;65.56;95002.47;5111236;27;20055;-47
2022/03/29 06:30:12;;;;;;;20.83;11.40;;;;;;;9.92;64.71;95006.72;5111570;27;21666;-44
2022/03/29 06:32:51;;;;;;;17.63;11.10;;;;;;;10.12;63.55;95012.44;5112398;27;20113;-43
2022/03/29 06:35:23;;;;;;;18.05;10.43;;;;;;;10.19;62.67;95006.34;5111677;27;20839;-43
2022/03/29 06:37:51;;;;;;;20.00;10.20;;;;;;;10.20;63.57;95007.94;5110555;27;20385;-45
2022/03/29 06:40:18;;;;;;;21.35;10.93;;;;;;;10.37;62.77;95008.09;5110859;27;20048;-45
2022/03/29 06:42:45;;;;;;;20.83;10.48;;;;;;;10.55;62.93;95004.59;5088579;27;20047;-48
2022/03/29 06:45:12;;;;;;;25.73;11.70;;;;;;;10.76;61.46;95001.41;5110247;27;20051;-48
2022/03/29 06:47:39;;;;;;;24.83;9.90;;;;;;;10.74;60.96;94987.84;5111291;27;20051;-45
2022/03/29 06:50:07;;;;;;;21.20;10.25;;;;;;;10.83;60.00;94996.88;5110795;27;20104;-45
2022/03/29 06:52:38;;;;;;;18.02;10.20;;;;;;;11.03;59.44;94998.34;5110883;27;20039;-48
2022/03/29 06:55:07;;;;;;;23.90;9.77;;;;;;;11.23;59.10;95001.34;5110753;27;20539;-45
2022/03/29 06:57:34;;;;;;;17.88;9.13;;;;;;;11.36;58.57;95005.53;5112142;27;20043;-44
2022/03/29 07:00:01;;;;;;;14.85;8.73;;;;;;;11.43;57.81;95000.19;5112634;27;20115;-48
2022/03/29 07:02:28;;;;;;;15.07;8.20;;;;;;;11.47;58.29;95001.31;5112359;27;20043;-48
2022/03/29 07:04:55;;;;;;;20.63;9.65;;;;;;;11.61;57.38;94997.41;5110911;27;20043;-43
2022/03/29 07:07:22;;;;;;;17.27;9.18;;;;;;;11.60;57.72;94993.22;5111907;27;20074;-46
2022/03/29 07:12:53;;;;;;;20.30;9.35;;;;;;;11.67;57.44;94990.47;5110895;27;20040;-44
2022/03/29 07:15:22;;;;;;;15.23;8.57;;;;;;;11.75;57.05;94986.69;5102861;27;20052;-47
2022/03/29 07:17:49;;;;;;;24.30;8.48;;;;;;;11.89;57.20;94987.97;5107188;27;20048;-47
2022/03/29 07:20:17;;;;;;;16.77;8.90;;;;;;;11.96;56.01;94987.88;5106644;27;20454;-43
2022/03/29 07:22:47;;;;;;;16.05;7.97;;;;;;;11.90;56.70;94981.75;5107244;27;20429;-46
2022/03/29 07:25:16;;;;;;;13.82;8.32;;;;;;;12.15;55.63;94980.59;5106567;27;20062;-45
2022/03/29 07:27:42;;;;;;;17.83;8.65;;;;;;;12.31;55.90;94979.03;5105729;27;20100;-44
2022/03/29 07:30:10;;;;;;;21.98;8.75;;;;;;;12.46;54.83;94970.63;5109161;27;20548;-45
2022/03/29 07:32:54;;;;;;;15.75;7.80;;;;;;;12.68;53.97;94971.47;5110715;27;20055;-45
2022/03/29 07:35:24;;;;;;;20.63;7.45;;;;;;;12.71;53.38;94973.63;5109223;27;20051;-43
2022/03/29 07:37:51;;;;;;;21.00;8.60;;;;;;;12.88;52.54;94972.78;5108477;27;20798;-46
2022/03/29 07:40:22;;;;;;;13.27;7.90;;;;;;;12.92;51.85;94968.66;5108307;27;20052;-45
2022/03/29 07:42:51;;;;;;;12.52;7.70;;;;;;;12.90;51.57;94968.09;5106853;27;20452;-49
2022/03/29 07:45:19;;;;;;;15.32;8.40;;;;;;;13.13;51.10;94965.25;5105924;27;20039;-46
2022/03/29 07:47:51;;;;;;;19.98;9.25;;;;;;;13.27;50.77;94964.88;5106443;27;20528;-51
2022/03/29 07:50:38;;;;;;;19.80;9.35;;;;;;;13.30;49.44;94967.03;5109110;27;20055;-49
2022/03/29 07:53:05;;;;;;;24.17;9.65;;;;;;;13.15;49.89;94952.72;5109507;27;20060;-47
2022/03/29 07:55:33;;;;;;;19.50;10.63;;;;;;;13.31;49.18;94955.56;5108731;27;20051;-43
2022/03/29 07:58:09;;;;;;;14.80;8.25;;;;;;;13.43;48.83;94966.66;5109524;27;20116;-47
2022/03/29 08:00:36;;;;;;;20.92;10.15;;;;;;;13.55;49.65;94951.63;5110447;27;20057;-44
2022/03/29 08:03:07;;;;;;;13.70;8.35;;;;;;;13.73;47.98;94953.13;5110299;27;20067;-47
2022/03/29 08:05:35;;;;;;;15.32;8.55;;;;;;;13.81;47.78;94954.50;5110014;27;20043;-44
2022/03/29 08:08:03;;;;;;;15.05;8.07;;;;;;;13.66;46.11;94947.28;5110720;27;20040;-45
2022/03/29 08:10:32;;;;;;;19.02;9.52;;;;;;;13.77;47.08;94950.78;5111812;27;20070;-43
2022/03/29 08:13:00;;;;;;;19.95;9.10;;;;;;;13.62;46.31;94950.66;5107758;28;20040;-43
2022/03/29 08:15:31;;;;;;;17.38;9.05;;;;;;;13.75;46.12;94937.16;5109625;28;20064;-46
2022/03/29 08:18:05;;;;;;;22.52;8.98;;;;;;;14.00;45.84;94935.81;5112071;27;20035;-43
2022/03/29 08:20:32;;;;;;;19.40;9.57;;;;;;;14.18;44.24;94932.81;5112157;28;20122;-44
2022/03/29 08:23:00;;;;;;;23.25;9.25;;;;;;;13.98;44.14;94928.22;5111430;28;20035;-44
2022/03/29 08:25:29;;;;;;;14.63;8.02;;;;;;;14.07;43.68;94920.69;5109775;28;20202;-44
2022/03/29 08:27:57;;;;;;;14.88;8.43;;;;;;;14.23;43.68;94935.47;5110040;28;20097;-46
2022/03/29 08:30:25;;;;;;;15.15;8.30;;;;;;;14.14;43.50;94931.75;5109115;28;20040;-47
2022/03/29 08:32:53;;;;;;;22.05;8.18;;;;;;;14.31;43.35;94935.03;5109999;28;20120;-51
2022/03/29 08:35:27;;;;;;;12.82;7.20;;;;;;;14.45;43.24;94927.50;5111414;28;20126;-48
2022/03/29 08:37:53;;;;;;;18.15;7.85;;;;;;;14.44;42.26;94909.41;5112241;28;20117;-49
2022/03/29 08:40:43;;;;;;;10.20;5.90;;;;;;;14.67;40.61;94918.75;5109493;28;20092;-47
2022/03/29 08:43:11;;;;;;;23.10;7.75;;;;;;;14.78;40.85;94920.38;5108354;28;20088;-45
2022/03/29 08:45:40;;;;;;;16.88;7.97;;;;;;;14.90;40.59;94912.31;5110147;28;20047;-47
2022/03/29 08:48:08;;;;;;;13.32;6.78;;;;;;;15.01;40.92;94908.69;5111967;28;20035;-44
2022/03/29 08:50:37;;;;;;;11.85;5.55;;;;;;;15.08;38.43;94917.09;5109440;28;20046;-46
2022/03/29 08:53:07;;;;;;;12.48;6.40;;;;;;;15.18;39.49;94907.69;5109453;28;20520;-44
2022/03/29 08:55:35;;;;;;;13.70;6.53;;;;;;;15.37;39.13;94900.91;5111013;28;20101;-44
2022/03/29 08:58:02;;;;;;;9.13;4.68;;;;;;;15.39;37.62;94904.06;5110315;28;20047;-45
2022/03/29 09:00:29;;;;;;;17.40;5.93;;;;;;;15.55;38.47;94898.88;5110876;28;20398;-45
2022/03/29 09:02:56;;;;;;;11.57;5.97;;;;;;;15.67;38.26;94883.66;5111154;28;20500;-45
2022/03/29 09:05:27;;;;;;;15.73;6.55;;;;;;;15.70;37.59;94891.03;5110315;28;20051;-47
2022/03/29 09:08:04;;;;;;;12.70;6.53;;;;;;;15.75;37.49;94885.78;5090186;27;20050;-46
2022/03/29 09:10:48;;;;;;;16.00;5.65;;;;;;;15.86;37.82;94878.69;5115795;27;20043;-46
2022/03/29 09:13:26;;;;;;;;;;;;;;;16.08;37.06;94878.44;5114568;27;20125;-44
2022/03/29 09:15:57;;;;;;;12.52;4.72;;;;;;;16.14;36.96;94877.38;5112729;27;20605;-48
2022/03/29 09:18:26;;;;;;;2.92;1.80;;;;;;;15.92;37.60;94879.47;5113904;27;20048;-44
2022/03/29 09:21:16;;;;;;;15.82;6.13;;;;;;;16.06;36.86;94859.50;5114040;27;20594;-45
2022/03/29 09:24:02;;;;;;;12.57;4.72;;;;;;;16.15;36.02;94857.13;5113195;27;20043;-45
2022/03/29 09:26:30;;;;;;;9.05;5.00;;;;;;;16.48;36.38;94850.53;5114717;27;20063;-47
2022/03/29 09:28:58;;;;;;;14.73;5.07;;;;;;;16.82;36.09;94842.00;5116772;27;20042;-45
2022/03/29 09:31:27;;;;;;;10.38;5.43;;;;;;;17.10;35.25;94845.03;5094775;27;20398;-49
2022/03/29 09:34:18;;;;;;;13.25;5.43;;;;;;;16.97;34.57;94843.78;5113141;27;20070;-49
2022/03/29 09:36:52;;;;;;;8.80;5.43;;;;;;;16.96;34.32;94840.38;5100328;27;20124;-46
2022/03/29 09:39:36;;;;;;;11.85;6.05;;;;;;;17.10;34.10;94834.53;5113020;27;20055;-45
2022/03/29 09:42:07;;;;;;;11.77;4.13;;;;;;;17.17;33.11;94837.63;5113702;27;20036;-44
2022/03/29 09:44:39;;;;;;;;;;;;;;;16.93;32.76;94830.41;5090520;27;20108;-44
2022/03/29 09:47:09;;;;;;;8.07;3.75;;;;;;;16.93;33.52;94822.50;5111845;27;19923;-45
2022/03/29 09:49:47;;;;;;;11.50;3.85;;;;;;;16.87;32.65;94834.13;5110774;27;20046;-47
2022/03/29 09:52:16;;;;;;;7.00;3.50;;;;;;;17.03;32.86;94820.88;5111660;27;20040;-44
2022/03/29 09:55:13;;;;;;;4.97;3.50;;;;;;;17.04;33.60;94817.19;5113484;27;20047;-51
2022/03/29 09:57:52;;;;;;;8.65;3.35;;;;;;;17.26;33.84;94807.06;5112692;27;20070;-46
2022/03/29 10:00:35;;;;;;;9.80;4.85;;;;;;;16.89;33.21;94792.53;5111509;27;20046;-45
2022/03/29 10:03:06;;;;;;;7.15;4.28;;;;;;;17.05;33.30;94805.59;5112134;27;20053;-46
2022/03/29 10:05:37;;;;;;;5.20;2.53;;;;;;;17.23;33.13;94802.31;5112229;27;20519;-46
2022/03/29 10:11:22;;;;;;;13.95;4.80;;;;;;;17.51;33.01;94797.41;5111461;27;20467;-45
2022/03/29 10:13:49;;;;;;;12.48;4.75;;;;;;;17.43;33.40;94784.81;5110666;27;20066;-45
2022/03/29 10:16:17;;;;;;;11.60;3.95;;;;;;;17.56;33.07;94794.75;5109954;27;20043;-44
2022/03/29 10:18:45;;;;;;;10.43;5.15;;;;;;;17.93;33.12;94788.94;5108012;27;20048;-46
2022/03/29 10:21:15;;;;;;;20.75;4.50;;;;;;;18.31;31.97;94783.81;5109985;27;20044;-48
2022/03/29 10:23:46;;;;;;;7.72;3.90;;;;;;;18.28;31.04;94786.22;5110000;27;20044;-46
2022/03/29 10:26:16;;;;;;;7.30;4.22;;;;;;;18.18;31.77;94788.94;5111502;27;20097;-48
2022/03/29 10:28:46;;;;;;;7.55;4.32;;;;;;;18.12;31.99;94781.09;5109625;27;20044;-46
2022/03/29 10:31:29;;;;;;;16.48;5.03;;;;;;;18.49;30.90;94769.09;5111147;27;20470;-45
2022/03/29 10:34:13;;;;;;;9.68;4.32;;;;;;;18.69;30.50;94778.63;5108207;27;20129;-44
2022/03/29 10:36:59;;;;;;;8.48;4.25;;;;;;;18.70;30.86;94755.66;5105894;27;20452;-45
2022/03/29 10:39:55;;;;;;;9.65;4.70;;;;;;;18.62;30.57;94761.53;5107953;27;20038;-44
2022/03/29 10:42:42;;;;;;;15.77;3.78;;;;;;;18.08;31.02;94774.03;5110098;27;20043;-46
2022/03/29 10:45:25;;;;;;;6.78;2.50;;;;;;;17.97;31.29;94762.81;5102635;27;20059;-45
2022/03/29 10:47:59;;;;;;;11.50;4.50;;;;;;;18.11;30.84;94758.44;5110208;27;20099;-46
2022/03/29 10:50:57;;;;;;;9.70;4.70;;;;;;;18.48;30.66;94759.59;5109526;27;20519;-46
2022/03/29 10:53:45;;;;;;;9.10;4.97;;;;;;;17.87;30.68;94747.09;5111405;27;20050;-44
2022/03/29 10:56:16;;;;;;;10.80;4.40;;;;;;;18.23;30.22;94744.09;5108306;27;20047;-49
2022/03/29 10:59:01;;;;;;;15.13;4.65;;;;;;;18.32;30.06;94747.66;5112651;27;20042;-45
2022/03/29 11:01:32;;;;;;;7.72;3.90;;;;;;;18.80;29.80;94731.78;5112378;27;20050;-48
2022/03/29 11:04:00;;;;;;;12.23;3.42;;;;;;;18.61;29.50;94723.06;5088003;27;20048;-47
2022/03/29 11:06:28;;;;;;;8.60;3.70;;;;;;;18.95;29.22;94727.38;5111706;27;20078;-46
2022/03/29 11:09:09;;;;;;;11.52;4.30;;;;;;;19.10;29.02;94713.94;5108090;27;20047;-45
2022/03/29 11:11:41;;;;;;;14.73;4.32;;;;;;;18.87;28.15;94711.13;5104312;27;20052;-44
2022/03/29 11:14:37;;;;;;;8.25;3.75;;;;;;;19.29;28.77;94706.78;5110263;27;20043;-48
2022/03/29 11:17:04;;;;;;;9.18;3.58;;;;;;;19.54;27.83;94707.47;5111888;27;20040;-49
2022/03/29 11:19:48;;;;;;;8.25;4.25;;;;;;;19.21;28.16;94710.09;5109728;27;20043;-46
2022/03/29 11:22:24;;;;;;;13.20;4.73;;;;;;;18.57;29.89;94706.25;5109653;27;20073;-48
2022/03/29 11:24:55;;;;;;;9.95;4.78;;;;;;;18.36;29.08;94701.22;5103513;27;20445;-47
2022/03/29 11:27:24;;;;;;;9.57;4.10;;;;;;;17.88;30.13;94696.75;5084633;28;20058;-48
2022/03/29 11:29:51;;;;;;;10.80;4.20;;;;;;;17.88;29.94;94680.97;5092169;27;20115;-50
2022/03/29 11:32:18;;;;;;;16.55;5.35;;;;;;;18.35;29.71;94689.13;5109266;27;20057;-46
2022/03/29 11:34:46;;;;;;;10.05;4.55;;;;;;;18.20;29.30;94691.94;5106674;27;20050;-48
2022/03/29 11:37:32;;;;;;;9.10;4.00;;;;;;;18.12;29.53;94680.94;5110019;27;20058;-48
2022/03/29 11:40:02;;;;;;;7.32;3.63;;;;;;;18.30;29.25;94676.00;5105254;27;20064;-49
2022/03/29 11:42:50;;;;;;;14.57;4.93;;;;;;;18.28;29.37;94672.84;5107991;27;20031;-51
2022/03/29 11:45:19;;;;;;;11.65;4.10;;;;;;;18.10;29.79;94672.53;5106941;27;20047;-49
2022/03/29 11:47:59;;;;;;;9.45;3.15;;;;;;;18.57;29.04;94664.06;5111068;27;20514;-47
2022/03/29 11:50:38;;;;;;;7.25;3.05;;;;;;;18.97;27.21;94661.91;5110371;27;20118;-48
2022/03/29 11:53:35;;;;;;;13.10;2.30;;;;;;;18.93;27.00;94666.19;5108210;27;21419;-46
2022/03/29 11:56:07;;;;;;;10.35;3.25;;;;;;;18.87;27.05;94679.47;5090900;27;20587;-43